Time;durP1;ratioP1;P1;durP2;ratioP2;P2;SDS_P1;SDS_P2;PMS_P1;PMS_P2;Temp;Humidity;BMP_temperature;BMP_pressure;BME280_temperature;BME280_humidity;BME280_pressure;Samples;Min_cycle;Max_cycle;Signal;HPM_P1;HPM_P2
2021/12/02 00:02:08;;;;;;;3.43;1.13;;;8.20;99.90;;;;;;5033485;28;20464;-91
2021/12/02 00:04:37;;;;;;;2.20;1.83;;;8.20;99.90;;;;;;5036630;28;20497;-89
2021/12/02 00:07:06;;;;;;;2.03;1.00;;;8.20;99.90;;;;;;5032675;28;20442;-90
2021/12/02 00:09:33;;;;;;;2.07;1.17;;;8.10;99.90;;;;;;5031112;28;20457;-87
2021/12/02 00:12:03;;;;;;;2.73;0.70;;;8.10;99.90;;;;;;5057943;28;20496;-86
2021/12/02 00:14:39;;;;;;;3.10;0.90;;;8.00;99.90;;;;;;5039687;28;20761;-91
2021/12/02 00:17:09;;;;;;;1.10;0.87;;;8.00;99.90;;;;;;5046056;28;20480;-89
2021/12/02 00:22:26;;;;;;;3.03;1.00;;;7.90;99.90;;;;;;5044235;28;20441;-87
2021/12/02 00:24:57;;;;;;;1.63;1.30;;;7.80;99.90;;;;;;5055632;28;20437;-89
2021/12/02 00:27:25;;;;;;;1.80;0.97;;;7.70;99.90;;;;;;5046827;28;20454;-89
2021/12/02 00:29:55;;;;;;;1.90;0.87;;;7.70;99.90;;;;;;5043987;28;20486;-86
2021/12/02 00:32:25;;;;;;;1.23;0.93;;;7.70;99.90;;;;;;5045210;28;20469;-88
2021/12/02 00:34:55;;;;;;;1.20;1.00;;;7.60;99.90;;;;;;5041673;28;20448;-90
2021/12/02 00:37:22;;;;;;;3.03;1.10;;;7.60;99.90;;;;;;5044224;28;21069;-91
2021/12/02 00:39:51;;;;;;;1.63;0.90;;;7.60;99.90;;;;;;5046305;28;20453;-90
2021/12/02 00:42:20;;;;;;;0.80;0.50;;;7.60;99.90;;;;;;5048621;28;20487;-87
2021/12/02 00:44:47;;;;;;;1.60;0.80;;;7.60;99.90;;;;;;5047547;28;20507;-89
2021/12/02 00:47:14;;;;;;;2.53;0.83;;;7.60;99.90;;;;;;5043828;28;20444;-89
2021/12/02 00:49:41;;;;;;;2.03;0.70;;;7.60;99.90;;;;;;5057236;28;20467;-90
2021/12/02 00:52:09;;;;;;;1.10;0.90;;;7.60;99.90;;;;;;5048144;28;20528;-90
2021/12/02 00:54:41;;;;;;;1.13;0.73;;;7.60;99.90;;;;;;5046506;28;20452;-91
2021/12/02 00:57:11;;;;;;;1.63;0.70;;;7.60;99.90;;;;;;5046146;28;20449;-90
2021/12/02 00:59:38;;;;;;;1.13;0.90;;;7.60;99.90;;;;;;5045704;28;20453;-89
2021/12/02 01:02:06;;;;;;;2.33;1.17;;;7.50;99.90;;;;;;5046539;28;20472;-90
2021/12/02 01:04:33;;;;;;;1.83;1.00;;;7.50;99.90;;;;;;5046133;28;20470;-90
2021/12/02 01:07:00;;;;;;;1.03;0.80;;;7.40;99.90;;;;;;5050750;28;21056;-89
2021/12/02 01:09:28;;;;;;;2.13;0.60;;;7.40;99.90;;;;;;5059142;28;20445;-88
2021/12/02 01:11:56;;;;;;;2.27;1.30;;;7.40;99.90;;;;;;5052257;28;20476;-91
2021/12/02 01:14:23;;;;;;;3.70;1.87;;;7.40;99.90;;;;;;5057913;28;20430;-89
2021/12/02 01:16:50;;;;;;;1.57;1.20;;;7.40;99.90;;;;;;5058768;28;20438;-86
2021/12/02 01:19:17;;;;;;;2.10;1.20;;;7.30;99.90;;;;;;5052598;28;20508;-89
2021/12/02 01:21:44;;;;;;;2.50;1.10;;;7.30;99.90;;;;;;5038458;28;20473;-89
2021/12/02 01:24:12;;;;;;;2.30;0.93;;;7.30;99.90;;;;;;5042168;28;20480;-90
2021/12/02 01:26:41;;;;;;;1.10;0.97;;;7.30;99.90;;;;;;5055668;28;20425;-87
2021/12/02 01:29:09;;;;;;;4.23;0.80;;;7.30;99.90;;;;;;5059225;28;20428;-88
2021/12/02 01:31:37;;;;;;;1.00;0.80;;;7.40;99.90;;;;;;5040171;28;20476;-90
2021/12/02 01:34:07;;;;;;;2.20;0.90;;;7.40;99.90;;;;;;5038143;28;20499;-91
2021/12/02 01:36:35;;;;;;;4.17;0.97;;;7.40;99.90;;;;;;5037486;28;20449;-91
2021/12/02 01:39:04;;;;;;;1.03;0.80;;;7.40;99.90;;;;;;5037001;28;21040;-91
2021/12/02 01:41:37;;;;;;;1.40;0.80;;;7.40;99.90;;;;;;5043918;28;20453;-90
2021/12/02 01:44:10;;;;;;;1.70;1.00;;;7.50;99.90;;;;;;5035119;28;20532;-91
2021/12/02 01:46:38;;;;;;;1.83;0.90;;;7.50;99.90;;;;;;5035197;28;20507;-90
2021/12/02 01:49:08;;;;;;;1.00;0.90;;;7.50;99.90;;;;;;5034918;28;20472;-91
2021/12/02 01:51:39;;;;;;;1.57;0.93;;;7.50;99.90;;;;;;5035086;28;20473;-91
2021/12/02 01:54:08;;;;;;;1.03;0.67;;;7.40;99.90;;;;;;5048502;28;20433;-88
2021/12/02 01:56:42;;;;;;;2.00;1.10;;;7.40;99.90;;;;;;5058934;28;20437;-90
2021/12/02 01:59:13;;;;;;;1.20;0.90;;;7.40;99.90;;;;;;5056155;28;20450;-89
2021/12/02 02:01:42;;;;;;;2.37;1.43;;;7.40;99.90;;;;;;5047921;28;20470;-89
2021/12/02 02:04:09;;;;;;;1.73;1.00;;;7.30;99.90;;;;;;5047339;28;20496;-89
2021/12/02 02:06:39;;;;;;;1.10;0.87;;;7.30;99.90;;;;;;5059493;28;20752;-88
2021/12/02 02:09:07;;;;;;;2.53;1.10;;;7.30;99.90;;;;;;5058389;28;20442;-90
2021/12/02 02:11:34;;;;;;;2.33;0.60;;;7.20;99.90;;;;;;5050319;28;20464;-89
2021/12/02 02:14:01;;;;;;;1.00;0.80;;;7.20;99.90;;;;;;5040472;28;20433;-90
2021/12/02 02:16:29;;;;;;;2.90;1.10;;;7.10;99.90;;;;;;5035788;28;20461;-90
2021/12/02 02:18:56;;;;;;;2.37;1.00;;;7.10;99.90;;;;;;5034421;28;20445;-91
2021/12/02 02:21:24;;;;;;;0.90;0.70;;;7.00;99.90;;;;;;5040664;28;20457;-89
2021/12/02 02:23:55;;;;;;;1.90;0.80;;;7.00;99.90;;;;;;5043925;28;20544;-90
2021/12/02 02:26:26;;;;;;;2.30;0.97;;;7.00;99.90;;;;;;5035872;28;21016;-91
2021/12/02 02:28:53;;;;;;;2.47;1.27;;;7.00;99.90;;;;;;5034953;28;20456;-90
2021/12/02 02:31:20;;;;;;;3.67;1.10;;;7.00;99.90;;;;;;5033035;28;20453;-89
2021/12/02 02:33:49;;;;;;;1.03;0.77;;;7.00;99.90;;;;;;5033811;28;20449;-90
2021/12/02 02:36:17;;;;;;;0.70;0.60;;;7.00;99.90;;;;;;5033877;28;20934;-90
2021/12/02 02:38:54;;;;;;;2.50;1.07;;;7.00;99.90;;;;;;5033070;28;20445;-90
2021/12/02 02:41:22;;;;;;;1.63;0.90;;;7.00;99.90;;;;;;5033125;28;20861;-90
2021/12/02 02:43:49;;;;;;;5.70;1.30;;;7.00;99.90;;;;;;5033973;28;20505;-90
2021/12/02 02:46:22;;;;;;;2.53;0.93;;;7.00;99.90;;;;;;5050134;28;20533;-88
2021/12/02 02:48:49;;;;;;;3.03;0.60;;;7.00;99.90;;;;;;5053923;28;20446;-90
2021/12/02 02:51:15;;;;;;;1.67;0.50;;;6.90;99.90;;;;;;5043077;28;20436;-87
2021/12/02 02:53:42;;;;;;;2.00;0.67;;;6.80;99.90;;;;;;5049004;28;20449;-89
2021/12/02 02:56:14;;;;;;;1.90;0.90;;;6.70;99.90;;;;;;5033475;28;20445;-89
2021/12/02 03:01:34;;;;;;;1.03;0.60;;;6.50;99.90;;;;;;5030313;28;20440;-89
2021/12/02 03:04:08;;;;;;;1.47;0.80;;;6.40;99.90;;;;;;5032778;28;20477;-89
2021/12/02 03:06:41;;;;;;;1.40;0.73;;;6.30;99.90;;;;;;5033192;28;20456;-90
2021/12/02 03:09:09;;;;;;;1.93;0.90;;;6.20;99.90;;;;;;5056024;28;20484;-88
2021/12/02 03:11:44;;;;;;;2.63;1.00;;;6.20;99.90;;;;;;5044977;28;20471;-91
2021/12/02 03:14:15;;;;;;;1.00;0.70;;;6.10;99.90;;;;;;5051337;28;20467;-88
2021/12/02 03:16:44;;;;;;;0.90;0.80;;;6.00;99.90;;;;;;5045053;28;20438;-90
2021/12/02 03:19:12;;;;;;;1.80;1.10;;;6.00;99.90;;;;;;5034728;28;20597;-90
2021/12/02 03:21:39;;;;;;;2.83;1.17;;;5.80;99.90;;;;;;5035162;28;20465;-89
2021/12/02 03:24:06;;;;;;;3.40;1.03;;;5.80;99.90;;;;;;5045416;28;20489;-88
2021/12/02 03:26:33;;;;;;;1.93;0.80;;;5.80;99.90;;;;;;5057631;28;20438;-87
2021/12/02 03:29:03;;;;;;;1.17;0.83;;;5.80;99.90;;;;;;5057365;28;20429;-87
2021/12/02 03:31:29;;;;;;;1.30;0.70;;;5.70;99.90;;;;;;5057412;28;20534;-88
2021/12/02 03:33:56;;;;;;;4.97;3.83;;;5.80;99.90;;;;;;5057464;28;20454;-87
2021/12/02 03:36:23;;;;;;;1.00;0.80;;;5.80;99.90;;;;;;5046369;28;20434;-87
2021/12/02 03:38:50;;;;;;;0.83;0.70;;;5.80;99.90;;;;;;5056877;28;20454;-89
2021/12/02 03:41:18;;;;;;;2.20;0.63;;;5.80;99.90;;;;;;5055437;28;20436;-89
2021/12/02 03:43:46;;;;;;;2.50;1.03;;;5.80;99.90;;;;;;5051109;28;20437;-89
2021/12/02 03:46:17;;;;;;;1.83;1.00;;;5.90;99.90;;;;;;5047114;28;20442;-87
2021/12/02 03:48:44;;;;;;;2.20;0.90;;;5.90;99.90;;;;;;5056249;28;20460;-89
2021/12/02 03:51:12;;;;;;;1.87;1.10;;;5.90;99.90;;;;;;5035113;28;20446;-90
2021/12/02 03:53:39;;;;;;;0.97;0.80;;;5.90;99.90;;;;;;5034765;28;20453;-90
2021/12/02 03:56:07;;;;;;;2.40;1.07;;;5.80;99.90;;;;;;5035327;28;20457;-88
2021/12/02 03:58:35;;;;;;;4.27;1.30;;;5.90;99.90;;;;;;5048631;28;20452;-89
2021/12/02 04:01:01;;;;;;;1.90;1.10;;;5.90;99.90;;;;;;5053600;28;20425;-90
2021/12/02 04:03:30;;;;;;;1.17;0.90;;;5.80;99.90;;;;;;5033533;28;20468;-89
2021/12/02 04:05:56;;;;;;;2.27;1.47;;;5.80;99.90;;;;;;5051047;28;20467;-87
2021/12/02 04:08:29;;;;;;;2.53;1.03;;;6.00;99.90;;;;;;5056991;28;20447;-87
2021/12/02 04:11:00;;;;;;;1.07;0.70;;;5.90;99.90;;;;;;5051445;28;20448;-90
2021/12/02 04:13:30;;;;;;;2.20;0.80;;;6.00;99.90;;;;;;5046841;28;20491;-87
2021/12/02 04:16:02;;;;;;;5.30;1.20;;;5.90;99.90;;;;;;5056868;28;20452;-87
2021/12/02 04:18:30;;;;;;;1.53;0.93;;;6.10;99.90;;;;;;5050488;28;20456;-89
2021/12/02 04:20:57;;;;;;;1.17;0.53;;;6.20;99.90;;;;;;5032372;28;20449;-90
2021/12/02 04:23:24;;;;;;;1.40;0.80;;;6.20;99.90;;;;;;5035208;28;20468;-89
2021/12/02 04:25:50;;;;;;;5.10;0.87;;;6.20;99.90;;;;;;5046796;28;20870;-90
2021/12/02 04:28:17;;;;;;;1.00;0.77;;;6.20;99.90;;;;;;5039557;28;20937;-89
2021/12/02 04:30:44;;;;;;;1.20;0.90;;;6.20;99.90;;;;;;5039880;28;20452;-90
2021/12/02 04:33:10;;;;;;;1.10;0.87;;;6.20;99.90;;;;;;5037014;28;20855;-89
2021/12/02 04:35:39;;;;;;;3.10;0.83;;;6.20;99.90;;;;;;5038677;28;20442;-89
2021/12/02 04:38:05;;;;;;;1.00;0.70;;;6.20;99.90;;;;;;5040332;28;20444;-89
2021/12/02 04:40:32;;;;;;;2.37;0.80;;;6.20;99.90;;;;;;5050071;28;20448;-90
2021/12/02 04:42:59;;;;;;;0.93;0.77;;;6.20;99.90;;;;;;5042050;28;20481;-87
2021/12/02 04:45:26;;;;;;;1.53;0.83;;;6.20;99.90;;;;;;5042456;28;20481;-89
2021/12/02 04:47:53;;;;;;;2.10;0.77;;;6.20;99.90;;;;;;5055809;28;20451;-90
2021/12/02 04:50:20;;;;;;;1.30;0.70;;;6.20;99.90;;;;;;5051367;28;20456;-88
2021/12/02 04:52:49;;;;;;;1.70;1.40;;;6.20;99.90;;;;;;5056633;28;20477;-91
2021/12/02 04:55:16;;;;;;;0.80;0.70;;;6.10;99.90;;;;;;5042163;28;20485;-89
2021/12/02 04:57:43;;;;;;;2.23;0.57;;;6.10;99.90;;;;;;5038186;28;20560;-90
2021/12/02 05:00:10;;;;;;;1.17;0.60;;;6.20;99.90;;;;;;5052623;28;20430;-88
2021/12/02 05:02:39;;;;;;;1.43;0.70;;;6.20;99.90;;;;;;5052588;28;20488;-89
2021/12/02 05:05:07;;;;;;;1.10;0.63;;;6.10;99.90;;;;;;5054195;28;20465;-87
2021/12/02 05:07:34;;;;;;;1.50;0.93;;;6.20;99.90;;;;;;5058743;28;20437;-88
2021/12/02 05:10:03;;;;;;;1.73;0.93;;;6.20;99.90;;;;;;5045869;28;20434;-87
2021/12/02 05:12:30;;;;;;;0.70;0.60;;;6.20;99.90;;;;;;5056007;28;20484;-89
2021/12/02 05:14:56;;;;;;;1.43;0.83;;;6.20;99.90;;;;;;5038341;28;20437;-91
2021/12/02 05:17:23;;;;;;;4.83;1.20;;;6.20;99.90;;;;;;5053318;28;20449;-90
2021/12/02 05:19:50;;;;;;;1.70;1.00;;;6.20;99.90;;;;;;5038993;28;20457;-86
2021/12/02 05:22:17;;;;;;;1.40;0.70;;;6.20;99.90;;;;;;5047583;28;20984;-90
2021/12/02 05:24:44;;;;;;;1.97;1.03;;;6.30;99.90;;;;;;5037000;28;20489;-89
2021/12/02 05:27:13;;;;;;;1.63;0.80;;;6.30;99.90;;;;;;5039110;28;20464;-90
2021/12/02 05:29:40;;;;;;;1.10;0.70;;;6.30;99.90;;;;;;5040521;28;20465;-90
2021/12/02 05:32:08;;;;;;;0.83;0.80;;;6.30;99.90;;;;;;5042293;28;20488;-90
2021/12/02 05:34:34;;;;;;;2.50;0.87;;;6.20;99.90;;;;;;5044164;28;20432;-86
2021/12/02 05:37:01;;;;;;;2.97;0.83;;;6.20;99.90;;;;;;5054782;28;20456;-87
2021/12/02 05:39:28;;;;;;;2.03;1.13;;;6.20;99.90;;;;;;5060301;28;20432;-86
2021/12/02 05:41:55;;;;;;;1.10;0.90;;;6.20;99.90;;;;;;5059339;28;20453;-89
2021/12/02 05:44:25;;;;;;;1.13;0.80;;;6.20;99.90;;;;;;5045798;28;20450;-89
2021/12/02 05:46:52;;;;;;;1.83;0.80;;;6.20;99.90;;;;;;5035412;28;20532;-89
2021/12/02 05:49:19;;;;;;;2.00;0.83;;;6.10;99.90;;;;;;5035267;28;20934;-89
2021/12/02 05:51:46;;;;;;;2.63;1.13;;;6.10;99.90;;;;;;5044408;28;20475;-90
2021/12/02 05:54:13;;;;;;;2.50;1.33;;;6.10;99.90;;;;;;5057909;28;20426;-88
2021/12/02 05:56:40;;;;;;;4.80;1.70;;;6.00;99.90;;;;;;5038900;28;20830;-90
2021/12/02 05:59:07;;;;;;;1.17;0.60;;;6.00;99.90;;;;;;5034600;28;20478;-89
2021/12/02 06:01:37;;;;;;;1.57;0.87;;;5.90;99.90;;;;;;5035552;28;20473;-90
2021/12/02 06:04:04;;;;;;;2.10;0.80;;;6.00;99.90;;;;;;5040181;28;20433;-86
2021/12/02 06:06:31;;;;;;;4.00;1.27;;;6.00;99.90;;;;;;5052329;28;20495;-88
2021/12/02 06:08:57;;;;;;;13.03;1.83;;;6.10;99.90;;;;;;5055188;28;20448;-88
2021/12/02 06:11:24;;;;;;;1.90;1.30;;;6.10;99.90;;;;;;5047758;28;20452;-90
2021/12/02 06:13:51;;;;;;;1.87;0.90;;;6.20;99.90;;;;;;5043287;28;20441;-90
2021/12/02 06:16:17;;;;;;;1.83;1.10;;;6.10;99.90;;;;;;5041817;28;20432;-87
2021/12/02 06:18:45;;;;;;;2.43;1.40;;;6.10;99.90;;;;;;5058241;28;20445;-88
2021/12/02 06:21:12;;;;;;;1.77;1.13;;;6.10;99.90;;;;;;5040852;28;20445;-88
2021/12/02 06:23:40;;;;;;;1.17;0.80;;;6.10;99.90;;;;;;5021744;28;20548;-90
2021/12/02 06:26:07;;;;;;;2.40;0.73;;;6.10;99.90;;;;;;5037659;28;20500;-91
2021/12/02 06:28:34;;;;;;;1.20;1.03;;;6.10;99.90;;;;;;5038384;28;20468;-88
2021/12/02 06:31:02;;;;;;;1.23;0.90;;;6.10;99.90;;;;;;5036456;28;20942;-90
2021/12/02 06:33:29;;;;;;;2.10;0.90;;;6.10;99.90;;;;;;5035620;28;20508;-90
2021/12/02 06:35:57;;;;;;;0.80;0.70;;;6.10;99.90;;;;;;5036275;28;20441;-90
2021/12/02 06:38:24;;;;;;;3.10;2.00;;;6.10;99.90;;;;;;5036406;28;20444;-90
2021/12/02 06:40:52;;;;;;;1.63;0.73;;;6.00;99.90;;;;;;5036345;28;20447;-90
2021/12/02 06:43:19;;;;;;;1.17;0.70;;;6.00;99.90;;;;;;5045192;28;20961;-88
2021/12/02 06:45:46;;;;;;;2.00;0.87;;;5.90;99.90;;;;;;5053103;28;20479;-87
2021/12/02 06:48:13;;;;;;;2.00;0.80;;;5.80;99.90;;;;;;5057117;28;20433;-87
2021/12/02 06:50:43;;;;;;;1.40;0.90;;;5.80;99.90;;;;;;5048482;28;20543;-88
2021/12/02 06:53:12;;;;;;;0.80;0.70;;;5.70;99.90;;;;;;5051163;28;20489;-89
2021/12/02 06:55:39;;;;;;;1.17;0.77;;;5.70;99.90;;;;;;5038526;28;20450;-89
2021/12/02 06:58:05;;;;;;;2.30;0.77;;;5.60;99.90;;;;;;5036976;28;20553;-90
2021/12/02 07:00:32;;;;;;;2.27;0.80;;;5.50;99.90;;;;;;5035189;28;21020;-90
2021/12/02 07:03:01;;;;;;;3.43;1.93;;;5.50;99.90;;;;;;5033876;28;20480;-89
2021/12/02 07:05:29;;;;;;;0.80;0.70;;;5.40;99.90;;;;;;5036113;28;20491;-89
2021/12/02 07:07:56;;;;;;;1.23;1.13;;;5.50;99.90;;;;;;5034154;28;20460;-90
2021/12/02 07:10:25;;;;;;;1.47;0.90;;;5.50;99.90;;;;;;5034540;28;20446;-89
2021/12/02 07:12:55;;;;;;;1.60;1.10;;;5.50;99.90;;;;;;5037823;28;20533;-87
2021/12/02 07:15:27;;;;;;;1.87;1.00;;;5.50;99.90;;;;;;5038986;28;20512;-90
2021/12/02 07:17:56;;;;;;;2.40;0.93;;;5.50;99.90;;;;;;5035065;28;20460;-89
2021/12/02 07:20:23;;;;;;;1.63;0.70;;;5.50;99.90;;;;;;5036188;28;20552;-90
2021/12/02 07:22:50;;;;;;;2.67;0.97;;;5.50;99.90;;;;;;5041174;28;20476;-88
2021/12/02 07:25:17;;;;;;;2.80;1.07;;;5.50;99.90;;;;;;5054467;28;20468;-88
2021/12/02 07:27:47;;;;;;;3.67;1.40;;;5.50;99.90;;;;;;5055823;28;20440;-90
2021/12/02 07:30:14;;;;;;;1.90;1.10;;;5.60;99.90;;;;;;5041885;28;20457;-89
2021/12/02 07:32:42;;;;;;;2.77;1.00;;;5.70;99.90;;;;;;5057799;28;20492;-88
2021/12/02 07:35:12;;;;;;;1.07;0.77;;;5.80;99.90;;;;;;5057649;28;20435;-88
2021/12/02 07:37:42;;;;;;;2.03;0.73;;;5.80;99.90;;;;;;5044278;28;20441;-90
2021/12/02 07:40:10;;;;;;;0.83;0.63;;;5.80;99.90;;;;;;5040708;28;20441;-88
2021/12/02 07:42:37;;;;;;;2.97;0.97;;;5.90;99.90;;;;;;5057760;28;20436;-87
2021/12/02 07:45:07;;;;;;;2.60;0.83;;;5.90;99.90;;;;;;5053078;28;20453;-89
2021/12/02 07:47:35;;;;;;;1.10;0.67;;;5.90;99.90;;;;;;5055831;28;20445;-90
2021/12/02 07:50:02;;;;;;;1.87;0.80;;;5.90;99.90;;;;;;5048935;28;20449;-88
2021/12/02 07:52:32;;;;;;;1.53;0.80;;;6.00;99.90;;;;;;5049182;28;20453;-87
2021/12/02 07:55:03;;;;;;;2.10;0.90;;;6.00;99.90;;;;;;5057171;28;20500;-87
2021/12/02 07:57:31;;;;;;;1.10;1.00;;;6.00;99.90;;;;;;5051649;28;20446;-86
2021/12/02 07:59:58;;;;;;;1.10;0.77;;;6.00;99.90;;;;;;5021790;28;20476;-88
2021/12/02 08:02:28;;;;;;;1.20;0.80;;;6.00;99.90;;;;;;5038391;28;20472;-87
2021/12/02 08:04:55;;;;;;;1.07;0.70;;;6.00;99.90;;;;;;5055070;28;20500;-89
2021/12/02 08:07:22;;;;;;;2.20;1.30;;;6.00;99.90;;;;;;5045570;28;20525;-89
2021/12/02 08:09:48;;;;;;;2.23;0.83;;;6.00;99.90;;;;;;5040129;28;20452;-89
2021/12/02 08:12:15;;;;;;;1.80;1.13;;;6.00;99.90;;;;;;5037025;28;20484;-90
2021/12/02 08:14:45;;;;;;;1.83;1.20;;;6.10;99.90;;;;;;5040854;28;20449;-84
2021/12/02 08:17:14;;;;;;;1.57;0.90;;;6.10;99.90;;;;;;5018143;28;20453;-83
2021/12/02 08:19:44;;;;;;;1.03;0.67;;;6.10;99.90;;;;;;5021967;28;20452;-84
2021/12/02 08:22:10;;;;;;;1.30;0.97;;;6.20;99.90;;;;;;5038293;28;20568;-88
2021/12/02 08:24:37;;;;;;;2.50;0.90;;;6.20;99.90;;;;;;5039251;28;20447;-88
2021/12/02 08:27:04;;;;;;;2.47;1.00;;;6.20;99.90;;;;;;5039379;28;21020;-88
2021/12/02 08:29:32;;;;;;;0.93;0.80;;;6.30;99.90;;;;;;5053853;28;20453;-90
2021/12/02 08:32:00;;;;;;;1.97;1.27;;;6.30;99.90;;;;;;5023862;28;20556;-90
2021/12/02 08:34:27;;;;;;;1.57;0.90;;;6.30;99.90;;;;;;5022936;28;20522;-87
2021/12/02 08:36:56;;;;;;;1.27;0.97;;;6.40;99.90;;;;;;5037572;28;20455;-89
2021/12/02 08:39:27;;;;;;;2.37;1.40;;;6.40;99.90;;;;;;5042839;28;20458;-87
2021/12/02 08:41:55;;;;;;;2.90;1.30;;;6.40;99.90;;;;;;5058849;28;20456;-88
2021/12/02 08:44:23;;;;;;;1.60;0.97;;;6.50;99.90;;;;;;5047275;28;20946;-86
2021/12/02 08:46:51;;;;;;;1.60;1.23;;;6.40;99.90;;;;;;5037599;28;20481;-87
2021/12/02 08:49:18;;;;;;;2.57;1.10;;;6.40;99.90;;;;;;5039111;28;20551;-86
2021/12/02 08:51:45;;;;;;;1.07;0.77;;;6.30;99.90;;;;;;5039654;28;20477;-87
2021/12/02 08:54:13;;;;;;;1.47;1.10;;;6.40;99.90;;;;;;5043596;28;20456;-88
2021/12/02 08:56:41;;;;;;;2.27;0.93;;;6.30;99.90;;;;;;5047939;28;20441;-87
2021/12/02 08:59:08;;;;;;;1.93;1.10;;;6.30;99.90;;;;;;5038452;28;20477;-87
2021/12/02 09:01:35;;;;;;;1.03;0.80;;;6.30;99.90;;;;;;5044387;28;20468;-88
2021/12/02 09:04:03;;;;;;;2.87;1.50;;;6.30;99.90;;;;;;5041684;28;20449;-91
2021/12/02 09:06:30;;;;;;;1.70;1.10;;;6.30;99.90;;;;;;5043297;28;20476;-86
2021/12/02 09:08:58;;;;;;;1.60;1.50;;;6.30;99.90;;;;;;5042444;28;20453;-87
2021/12/02 09:11:28;;;;;;;1.47;1.10;;;6.40;99.90;;;;;;5039100;28;20457;-87
2021/12/02 09:13:57;;;;;;;1.67;1.23;;;6.50;99.90;;;;;;5038195;28;20446;-87
2021/12/02 09:16:24;;;;;;;1.53;1.30;;;6.60;99.90;;;;;;5040564;28;20524;-87
2021/12/02 09:18:51;;;;;;;6.90;2.90;;;6.70;99.90;;;;;;5033032;28;20464;-86
2021/12/02 09:21:17;;;;;;;1.63;1.13;;;6.70;99.90;;;;;;5041503;28;20456;-85
2021/12/02 09:23:44;;;;;;;1.80;1.40;;;6.80;99.90;;;;;;5046856;28;20457;-86
2021/12/02 09:26:11;;;;;;;2.50;1.10;;;7.00;99.90;;;;;;5043072;28;20488;-87
2021/12/02 09:28:39;;;;;;;2.80;1.10;;;7.10;99.90;;;;;;5041564;28;20457;-86
2021/12/02 09:31:06;;;;;;;4.30;2.17;;;7.20;99.90;;;;;;5043559;28;20442;-88
2021/12/02 09:33:33;;;;;;;5.30;2.63;;;7.30;99.90;;;;;;5045290;28;20437;-88
2021/12/02 09:36:02;;;;;;;2.50;1.03;;;7.40;99.90;;;;;;5051952;28;20426;-85
2021/12/02 09:38:28;;;;;;;1.70;1.37;;;7.40;99.90;;;;;;5059123;28;20443;-85
2021/12/02 09:40:55;;;;;;;2.27;1.20;;;7.40;99.90;;;;;;5067909;28;20451;-85
2021/12/02 09:43:22;;;;;;;4.10;1.93;;;7.40;99.90;;;;;;5058942;28;20473;-85
2021/12/02 09:45:50;;;;;;;1.60;1.27;;;7.30;99.90;;;;;;5057685;28;20473;-86
2021/12/02 09:48:17;;;;;;;2.37;1.23;;;7.20;99.90;;;;;;5057692;28;20776;-84
2021/12/02 09:50:54;;;;;;;3.60;1.40;;;7.30;99.90;;;;;;5053752;28;20444;-86
2021/12/02 09:53:22;;;;;;;2.10;1.50;;;7.20;99.90;;;;;;5054730;28;20523;-82
2021/12/02 09:55:54;;;;;;;1.80;1.60;;;7.10;99.90;;;;;;5050003;28;20476;-83
2021/12/02 09:58:23;;;;;;;3.63;1.70;;;7.10;99.90;;;;;;5039245;28;20453;-83
2021/12/02 10:00:56;;;;;;;2.07;1.67;;;7.10;99.90;;;;;;5047473;28;20450;-84
2021/12/02 10:03:29;;;;;;;2.97;1.70;;;7.00;99.90;;;;;;5040237;28;21031;-84
2021/12/02 10:06:03;;;;;;;5.37;2.07;;;7.00;99.90;;;;;;5038556;28;20477;-84
2021/12/02 10:08:36;;;;;;;3.97;1.10;;;6.90;99.90;;;;;;5038126;28;20985;-85
2021/12/02 10:11:05;;;;;;;1.90;1.37;;;6.80;99.90;;;;;;5036349;28;20532;-83
2021/12/02 10:13:36;;;;;;;1.40;1.10;;;6.60;99.90;;;;;;5035895;28;20887;-83
2021/12/02 10:16:15;;;;;;;2.80;2.07;;;6.30;99.90;;;;;;5032879;28;20557;-83
2021/12/02 10:18:55;;;;;;;5.00;1.30;;;6.10;99.90;;;;;;5040329;28;20961;-84
2021/12/02 10:21:28;;;;;;;1.37;1.27;;;6.00;99.90;;;;;;5040601;28;20449;-90
2021/12/02 10:23:55;;;;;;;2.10;1.30;;;5.90;99.90;;;;;;5040327;28;20516;-85
2021/12/02 10:26:23;;;;;;;1.77;1.37;;;5.90;99.90;;;;;;5042281;28;20477;-85
2021/12/02 10:28:52;;;;;;;1.90;1.60;;;5.90;99.90;;;;;;5041432;28;20441;-83
2021/12/02 10:31:26;;;;;;;2.10;1.03;;;5.90;99.90;;;;;;5035192;28;20449;-83
2021/12/02 10:33:57;;;;;;;7.20;3.90;;;5.80;99.90;;;;;;5042589;28;20521;-85
2021/12/02 10:36:29;;;;;;;3.00;1.70;;;5.70;99.90;;;;;;5041973;28;20453;-84
2021/12/02 10:38:58;;;;;;;2.17;1.20;;;5.60;99.90;;;;;;5041253;28;20449;-84
2021/12/02 10:41:27;;;;;;;1.07;0.80;;;5.60;99.90;;;;;;5045066;28;20449;-82
2021/12/02 10:44:24;;;;;;;1.70;1.10;;;5.50;99.90;;;;;;5051640;28;20444;-85
2021/12/02 10:47:02;;;;;;;2.67;1.40;;;5.60;99.90;;;;;;4992194;28;20523;-85
2021/12/02 10:49:31;;;;;;;2.53;1.60;;;5.70;99.90;;;;;;5036840;28;20439;-83
2021/12/02 10:52:01;;;;;;;1.87;1.57;;;5.80;99.90;;;;;;5031736;28;20472;-85
2021/12/02 10:54:30;;;;;;;4.23;1.87;;;5.90;99.90;;;;;;5022058;28;20446;-85
2021/12/02 10:56:59;;;;;;;2.00;1.80;;;5.90;99.90;;;;;;5022384;28;20442;-84
2021/12/02 10:59:35;;;;;;;1.27;1.13;;;6.00;99.90;;;;;;5025027;28;20447;-83
2021/12/02 11:02:06;;;;;;;2.83;1.43;;;6.00;99.90;;;;;;5025135;28;20441;-83
2021/12/02 11:04:42;;;;;;;1.83;1.40;;;5.90;99.90;;;;;;5021621;28;20442;-83
2021/12/02 11:07:13;;;;;;;2.50;2.30;;;5.90;99.90;;;;;;5026134;28;20491;-83
2021/12/02 11:09:41;;;;;;;1.70;1.60;;;5.90;99.90;;;;;;5042440;28;20457;-83
2021/12/02 11:12:15;;;;;;;2.17;1.77;;;5.90;99.90;;;;;;5038852;28;20868;-82
2021/12/02 11:14:51;;;;;;;2.80;1.80;;;5.80;99.90;;;;;;5041806;28;21008;-84
2021/12/02 11:17:20;;;;;;;1.80;1.30;;;5.80;99.90;;;;;;5027132;28;20445;-84
2021/12/02 11:19:48;;;;;;;1.97;1.30;;;5.70;99.90;;;;;;5036572;28;20981;-83
2021/12/02 11:22:17;;;;;;;4.00;2.70;;;5.70;99.90;;;;;;5039363;28;20469;-84
2021/12/02 11:24:45;;;;;;;2.50;1.53;;;5.70;99.90;;;;;;5036521;28;20452;-83
2021/12/02 11:27:17;;;;;;;1.20;1.10;;;5.70;99.90;;;;;;5038657;28;20485;-83
2021/12/02 11:30:04;;;;;;;2.53;1.83;;;5.70;99.90;;;;;;5035832;28;20453;-84
2021/12/02 11:32:54;;;;;;;3.13;1.50;;;5.70;99.90;;;;;;5049434;28;20517;-81
2021/12/02 11:35:33;;;;;;;2.03;1.50;;;5.70;99.90;;;;;;5054309;28;20451;-83
2021/12/02 11:38:05;;;;;;;2.30;1.60;;;5.70;99.90;;;;;;5048904;28;20459;-84
2021/12/02 11:40:36;;;;;;;1.70;1.60;;;5.70;99.90;;;;;;5048352;28;20479;-82
2021/12/02 11:43:04;;;;;;;2.37;1.70;;;5.80;99.90;;;;;;5047234;28;20461;-83
2021/12/02 11:45:33;;;;;;;1.90;1.47;;;5.80;99.90;;;;;;5038489;28;20484;-84
2021/12/02 11:48:01;;;;;;;3.13;1.93;;;5.90;99.90;;;;;;5030282;28;20478;-83
2021/12/02 11:50:29;;;;;;;2.20;2.00;;;6.00;99.90;;;;;;5031463;28;20449;-84
2021/12/02 11:52:56;;;;;;;2.30;2.10;;;6.10;99.90;;;;;;5030092;28;20834;-83
2021/12/02 11:55:26;;;;;;;2.73;2.37;;;6.10;99.90;;;;;;5036315;28;20457;-84
2021/12/02 11:57:53;;;;;;;2.13;1.93;;;6.10;99.90;;;;;;5049900;28;20429;-83
2021/12/02 12:00:25;;;;;;;2.53;2.33;;;6.10;99.90;;;;;;5035617;28;20446;-84
2021/12/02 12:02:57;;;;;;;2.30;2.10;;;6.00;99.90;;;;;;5034990;28;20442;-84
2021/12/02 12:05:32;;;;;;;2.70;2.50;;;6.10;99.90;;;;;;5031241;28;20438;-83
2021/12/02 12:08:00;;;;;;;4.00;2.80;;;6.20;99.90;;;;;;5032307;28;20488;-83
2021/12/02 12:10:38;;;;;;;4.07;2.60;;;6.20;99.90;;;;;;5032072;28;20449;-84
2021/12/02 12:13:16;;;;;;;2.43;2.03;;;6.20;99.90;;;;;;5032612;28;20484;-84
2021/12/02 12:15:44;;;;;;;3.40;2.10;;;6.30;99.90;;;;;;5032208;28;20445;-85
2021/12/02 12:18:19;;;;;;;3.60;2.13;;;6.30;99.90;;;;;;5031762;28;20444;-83
2021/12/02 12:21:05;;;;;;;3.30;2.30;;;6.30;99.90;;;;;;5017359;28;20514;-84
2021/12/02 12:23:39;;;;;;;2.33;2.13;;;6.20;99.90;;;;;;5032060;28;20953;-84
2021/12/02 12:26:21;;;;;;;2.13;1.73;;;6.20;99.90;;;;;;5033005;28;20453;-84
2021/12/02 12:29:34;;;;;;;2.17;1.90;;;6.10;99.90;;;;;;5035762;28;20445;-84
2021/12/02 12:32:20;;;;;;;3.67;2.30;;;6.00;99.90;;;;;;5032120;28;20465;-84
2021/12/02 12:34:58;;;;;;;3.07;2.70;;;6.10;99.90;;;;;;5032414;28;20457;-84
2021/12/02 12:40:44;;;;;;;3.20;2.60;;;6.20;99.90;;;;;;5032333;28;20884;-84
2021/12/02 12:43:27;;;;;;;2.20;2.00;;;6.20;99.90;;;;;;5034213;28;20465;-88
2021/12/02 12:46:09;;;;;;;1.80;1.70;;;6.20;99.90;;;;;;5051064;28;20441;-88
2021/12/02 12:48:36;;;;;;;3.63;2.13;;;6.10;99.90;;;;;;5039038;28;20487;-89
2021/12/02 12:51:31;;;;;;;3.60;2.90;;;6.00;99.90;;;;;;5035346;28;20452;-88
2021/12/02 12:54:01;;;;;;;3.33;3.03;;;6.00;99.90;;;;;;5016657;28;20449;-88
2021/12/02 12:56:34;;;;;;;3.43;3.13;;;6.00;99.90;;;;;;5029590;28;20438;-88
2021/12/02 12:59:13;;;;;;;2.90;2.60;;;6.10;99.90;;;;;;5047859;28;20448;-91
2021/12/02 13:02:03;;;;;;;6.53;3.40;;;6.10;99.90;;;;;;5047906;28;20470;-91
2021/12/02 13:04:33;;;;;;;2.40;2.20;;;6.20;99.90;;;;;;5026890;28;20511;-90
2021/12/02 13:07:16;;;;;;;4.10;2.90;;;6.30;99.90;;;;;;5029237;28;20558;-91
2021/12/02 13:09:54;;;;;;;3.50;2.67;;;6.50;99.90;;;;;;5027167;28;20484;-91
2021/12/02 13:12:29;;;;;;;4.03;3.40;;;6.70;99.90;;;;;;5030383;28;20522;-91
2021/12/02 13:14:57;;;;;;;3.80;3.50;;;6.80;99.90;;;;;;5037138;28;20957;-93
2021/12/02 13:17:47;;;;;;;3.73;2.93;;;6.90;99.90;;;;;;5035287;28;20568;-90
2021/12/02 13:20:29;;;;;;;3.23;2.93;;;7.10;99.90;;;;;;5037261;28;21168;-90